Daikoku — JD3247 — position and weather

sailwx.info

Track history (hours):
 
Tides and Currents Weather Stations Pressure Air Temp Water Temp Dewpoint Dewpoint Depression Visibility Wind Speed Wind Dir Waves Ship Positions

Daikoku

Last reported at 2016-Jul-27 12:26 UTC. Time now 2016-Jul-27 13:27 UTC.
Position N 34°41' E 135°12'.

Length 95 m; draft 3.4 m.

Type: Cargo ship. MMSI: 431003009.

Date/timePositionNaut miles runAvg speedWind from/ knotsBaromVisibWave heightAir tempDewpointWater temp
2016-Jul-27 12:26N 34°41' E 135°12'0 0.0
2016-Jul-27 11:32N 34°41' E 135°12'0 0.0
2016-Jul-27 10:32N 34°41' E 135°12'0 0.0
2016-Jul-27 09:32N 34°41' E 135°12'0 0.0
2016-Jul-27 08:26N 34°41' E 135°12'0 0.0
2016-Jul-27 07:33N 34°41' E 135°12'4 4.1
2016-Jul-27 06:33N 34°41' E 135°17'0 0.0
2016-Jul-27 05:33N 34°41' E 135°17'3 2.9
2016-Jul-27 04:32N 34°39' E 135°19'0 0.0
2016-Jul-27 03:20N 34°39' E 135°19'0 0.0
2016-Jul-27 02:32N 34°39' E 135°19'0 0.0
2016-Jul-27 01:32N 34°39' E 135°19'0 0.0
2016-Jul-27 00:32N 34°39' E 135°19'0 0.0
2016-Jul-26 23:32N 34°39' E 135°19'0 0.0
2016-Jul-26 22:32N 34°39' E 135°19'0 0.0
2016-Jul-26 21:32N 34°39' E 135°19'0 0.0
2016-Jul-26 20:32N 34°39' E 135°19'0 0.0
2016-Jul-26 19:32N 34°39' E 135°19'0 0.0
2016-Jul-26 18:32N 34°39' E 135°19'0 0.0
2016-Jul-26 17:32N 34°39' E 135°19'0 0.0
2016-Jul-26 16:32N 34°39' E 135°19'0 0.0
2016-Jul-26 15:32N 34°39' E 135°19'0 0.1
2016-Jul-26 14:32N 34°39' E 135°19'0 0.0
2016-Jul-26 13:32N 34°39' E 135°19'1010.1
2016-Jul-26 12:33N 34°31' E 135°12'1212.0
2016-Jul-26 11:33N 34°22' E 135°02'1111.2
2016-Jul-26 10:33N 34°11' E 134°60'238 9.9
2016-Jul-25 10:27N 35°06' E 139°41'1011.3
2016-Jul-25 09:34N 35°15' E 139°46'1010.0
2016-Jul-25 08:33N 35°24' E 139°41'0 0.0
2016-Jul-25 07:33N 35°24' E 139°41'0 0.0
2016-Jul-25 06:33N 35°24' E 139°41'1 1.0
2016-Jul-25 05:34N 35°23' E 139°41'2 1.8
2016-Jul-25 04:30N 35°22' E 139°43'0 0.0
2016-Jul-25 03:33N 35°22' E 139°43'0 0.0
2016-Jul-25 02:33N 35°22' E 139°43'0 0.0
2016-Jul-25 01:33N 35°22' E 139°43'0 0.0
2016-Jul-25 00:29N 35°22' E 139°43'0 0.0
2016-Jul-24 23:32N 35°22' E 139°43'0 0.0
2016-Jul-24 22:33N 35°22' E 139°43'0 0.1
2016-Jul-24 21:33N 35°22' E 139°43'0 0.0
2016-Jul-24 20:33N 35°22' E 139°43'0 0.0
2016-Jul-24 19:33N 35°22' E 139°43'0 0.0
2016-Jul-24 18:30N 35°22' E 139°43'4 4.3
2016-Jul-24 17:33N 35°18' E 139°44'1110.8
2016-Jul-24 16:33N 35°08' E 139°45'236 6.2
2016-Jul-23 02:29N 34°24' E 135°03'1111.9
2016-Jul-23 01:33N 34°32' E 135°13'10 9.9
2016-Jul-23 00:34N 34°41' E 135°17'0 0.3
2016-Jul-22 23:33N 34°41' E 135°17'3 2.6
2016-Jul-22 22:29N 34°39' E 135°19'0 0.0
2016-Jul-22 21:11N 34°39' E 135°19'0 0.1
2016-Jul-22 20:26N 34°39' E 135°19'910.7
2016-Jul-22 19:33N 34°31' E 135°13'1110.9
2016-Jul-22 18:33N 34°23' E 135°05'1010.0
2016-Jul-22 17:33N 34°14' E 134°60'240 5.2
2016-Jul-20 19:30N 35°09' E 139°44'1112.0
2016-Jul-20 18:34N 35°20' E 139°42'1313.0
2016-Jul-20 17:33N 35°31' E 139°51'7 6.6
2016-Jul-20 16:33N 35°36' E 139°46'0 0.0
2016-Jul-20 15:33N 35°36' E 139°46'0 0.0
2016-Jul-20 14:33N 35°36' E 139°46'0 0.0
2016-Jul-20 13:33N 35°36' E 139°46'0 0.0
2016-Jul-20 12:32N 35°36' E 139°46'6 6.4
2016-Jul-20 11:34N 35°33' E 139°53'0 0.0
2016-Jul-20 10:31N 35°33' E 139°53'0 0.1
2016-Jul-20 09:31N 35°33' E 139°53'0 0.0
2016-Jul-20 08:25N 35°33' E 139°53'0 0.0
2016-Jul-20 07:28N 35°33' E 139°53'0 0.0
2016-Jul-20 06:31N 35°33' E 139°53'0 0.0
2016-Jul-20 05:31N 35°33' E 139°53'0 0.0
2016-Jul-20 04:31N 35°33' E 139°53'0 0.1
2016-Jul-20 03:31N 35°33' E 139°53'0 0.0
2016-Jul-20 02:31N 35°33' E 139°53'0 0.1
2016-Jul-20 01:31N 35°33' E 139°53'0 0.0
2016-Jul-20 00:31N 35°33' E 139°53'0 0.1
2016-Jul-19 23:28N 35°33' E 139°53'0 0.0
2016-Jul-19 22:28N 35°33' E 139°53'0 0.0
2016-Jul-19 21:22N 35°33' E 139°53'0 0.1
2016-Jul-19 20:32N 35°33' E 139°53'9 9.8
2016-Jul-19 19:33N 35°25' E 139°47'1010.2
2016-Jul-19 18:33N 35°15' E 139°47'1111.2
2016-Jul-19 17:33N 35°04' E 139°44'1211.7
2016-Jul-19 16:33N 34°57' E 139°33'1212.1
2016-Jul-19 15:33N 34°50' E 139°20'215 5.8
2016-Jul-18 02:29N 34°22' E 135°01'1111.9
2016-Jul-18 01:33N 34°30' E 135°11'10 9.8
2016-Jul-18 00:33N 34°39' E 135°15'0 0.2
2016-Jul-17 23:25N 34°39' E 135°15'3 2.8
2016-Jul-17 22:30N 34°41' E 135°13'0 0.0
2016-Jul-17 21:30N 34°41' E 135°13'0 0.0
2016-Jul-17 20:12N 34°41' E 135°13'0 0.0
2016-Jul-17 19:30N 34°41' E 135°13'0 0.0
2016-Jul-17 18:30N 34°41' E 135°13'0 0.0
2016-Jul-17 17:30N 34°41' E 135°13'0 0.0
2016-Jul-17 16:30N 34°41' E 135°13'0 0.0
2016-Jul-17 15:30N 34°41' E 135°13'0 0.0
2016-Jul-17 14:30N 34°41' E 135°13'0 0.0
2016-Jul-17 13:30N 34°41' E 135°13'0 0.0
2016-Jul-17 12:30N 34°41' E 135°13'  
Track history (hours):
 
Tides and Currents Weather Stations Pressure Air Temp Water Temp Dewpoint Dewpoint Depression Visibility Wind Speed Wind Dir Waves Ship Positions

Daikoku

Last reported at 2016-Jul-27 12:26 UTC. Time now 2016-Jul-27 13:27 UTC.
Position N 34°41' E 135°12'.

Length 95 m; draft 3.4 m.

Type: Cargo ship. MMSI: 431003009.

Date/timePositionNaut miles runAvg speedWind from/ knotsBaromVisibWave heightAir tempDewpointWater temp
2016-Jul-27 12:26N 34°41' E 135°12'0 0.0
2016-Jul-27 11:32N 34°41' E 135°12'0 0.0
2016-Jul-27 10:32N 34°41' E 135°12'0 0.0
2016-Jul-27 09:32N 34°41' E 135°12'0 0.0
2016-Jul-27 08:26N 34°41' E 135°12'0 0.0
2016-Jul-27 07:33N 34°41' E 135°12'4 4.1
2016-Jul-27 06:33N 34°41' E 135°17'0 0.0
2016-Jul-27 05:33N 34°41' E 135°17'3 2.9
2016-Jul-27 04:32N 34°39' E 135°19'0 0.0
2016-Jul-27 03:20N 34°39' E 135°19'0 0.0
2016-Jul-27 02:32N 34°39' E 135°19'0 0.0
2016-Jul-27 01:32N 34°39' E 135°19'0 0.0
2016-Jul-27 00:32N 34°39' E 135°19'0 0.0
2016-Jul-26 23:32N 34°39' E 135°19'0 0.0
2016-Jul-26 22:32N 34°39' E 135°19'0 0.0
2016-Jul-26 21:32N 34°39' E 135°19'0 0.0
2016-Jul-26 20:32N 34°39' E 135°19'0 0.0
2016-Jul-26 19:32N 34°39' E 135°19'0 0.0
2016-Jul-26 18:32N 34°39' E 135°19'0 0.0
2016-Jul-26 17:32N 34°39' E 135°19'0 0.0
2016-Jul-26 16:32N 34°39' E 135°19'0 0.0
2016-Jul-26 15:32N 34°39' E 135°19'0 0.1
2016-Jul-26 14:32N 34°39' E 135°19'0 0.0
2016-Jul-26 13:32N 34°39' E 135°19'1010.1
2016-Jul-26 12:33N 34°31' E 135°12'1212.0
2016-Jul-26 11:33N 34°22' E 135°02'1111.2
2016-Jul-26 10:33N 34°11' E 134°60'238 9.9
2016-Jul-25 10:27N 35°06' E 139°41'1011.3
2016-Jul-25 09:34N 35°15' E 139°46'1010.0
2016-Jul-25 08:33N 35°24' E 139°41'0 0.0
2016-Jul-25 07:33N 35°24' E 139°41'0 0.0
2016-Jul-25 06:33N 35°24' E 139°41'1 1.0
2016-Jul-25 05:34N 35°23' E 139°41'2 1.8
2016-Jul-25 04:30N 35°22' E 139°43'0 0.0
2016-Jul-25 03:33N 35°22' E 139°43'0 0.0
2016-Jul-25 02:33N 35°22' E 139°43'0 0.0
2016-Jul-25 01:33N 35°22' E 139°43'0 0.0
2016-Jul-25 00:29N 35°22' E 139°43'0 0.0
2016-Jul-24 23:32N 35°22' E 139°43'0 0.0
2016-Jul-24 22:33N 35°22' E 139°43'0 0.1
2016-Jul-24 21:33N 35°22' E 139°43'0 0.0
2016-Jul-24 20:33N 35°22' E 139°43'0 0.0
2016-Jul-24 19:33N 35°22' E 139°43'0 0.0
2016-Jul-24 18:30N 35°22' E 139°43'4 4.3
2016-Jul-24 17:33N 35°18' E 139°44'1110.8
2016-Jul-24 16:33N 35°08' E 139°45'236 6.2
2016-Jul-23 02:29N 34°24' E 135°03'1111.9
2016-Jul-23 01:33N 34°32' E 135°13'10 9.9
2016-Jul-23 00:34N 34°41' E 135°17'0 0.3
2016-Jul-22 23:33N 34°41' E 135°17'3 2.6
2016-Jul-22 22:29N 34°39' E 135°19'0 0.0
2016-Jul-22 21:11N 34°39' E 135°19'0 0.1
2016-Jul-22 20:26N 34°39' E 135°19'910.7
2016-Jul-22 19:33N 34°31' E 135°13'1110.9
2016-Jul-22 18:33N 34°23' E 135°05'1010.0
2016-Jul-22 17:33N 34°14' E 134°60'240 5.2
2016-Jul-20 19:30N 35°09' E 139°44'1112.0
2016-Jul-20 18:34N 35°20' E 139°42'1313.0
2016-Jul-20 17:33N 35°31' E 139°51'7 6.6
2016-Jul-20 16:33N 35°36' E 139°46'0 0.0
2016-Jul-20 15:33N 35°36' E 139°46'0 0.0
2016-Jul-20 14:33N 35°36' E 139°46'0 0.0
2016-Jul-20 13:33N 35°36' E 139°46'0 0.0
2016-Jul-20 12:32N 35°36' E 139°46'6 6.4
2016-Jul-20 11:34N 35°33' E 139°53'0 0.0
2016-Jul-20 10:31N 35°33' E 139°53'0 0.1
2016-Jul-20 09:31N 35°33' E 139°53'0 0.0
2016-Jul-20 08:25N 35°33' E 139°53'0 0.0
2016-Jul-20 07:28N 35°33' E 139°53'0 0.0
2016-Jul-20 06:31N 35°33' E 139°53'0 0.0
2016-Jul-20 05:31N 35°33' E 139°53'0 0.0
2016-Jul-20 04:31N 35°33' E 139°53'0 0.1
2016-Jul-20 03:31N 35°33' E 139°53'0 0.0
2016-Jul-20 02:31N 35°33' E 139°53'0 0.1
2016-Jul-20 01:31N 35°33' E 139°53'0 0.0
2016-Jul-20 00:31N 35°33' E 139°53'0 0.1
2016-Jul-19 23:28N 35°33' E 139°53'0 0.0
2016-Jul-19 22:28N 35°33' E 139°53'0 0.0
2016-Jul-19 21:22N 35°33' E 139°53'0 0.1
2016-Jul-19 20:32N 35°33' E 139°53'9 9.8
2016-Jul-19 19:33N 35°25' E 139°47'1010.2
2016-Jul-19 18:33N 35°15' E 139°47'1111.2
2016-Jul-19 17:33N 35°04' E 139°44'1211.7
2016-Jul-19 16:33N 34°57' E 139°33'1212.1
2016-Jul-19 15:33N 34°50' E 139°20'215 5.8
2016-Jul-18 02:29N 34°22' E 135°01'1111.9
2016-Jul-18 01:33N 34°30' E 135°11'10 9.8
2016-Jul-18 00:33N 34°39' E 135°15'0 0.2
2016-Jul-17 23:25N 34°39' E 135°15'3 2.8
2016-Jul-17 22:30N 34°41' E 135°13'0 0.0
2016-Jul-17 21:30N 34°41' E 135°13'0 0.0
2016-Jul-17 20:12N 34°41' E 135°13'0 0.0
2016-Jul-17 19:30N 34°41' E 135°13'0 0.0
2016-Jul-17 18:30N 34°41' E 135°13'0 0.0
2016-Jul-17 17:30N 34°41' E 135°13'0 0.0
2016-Jul-17 16:30N 34°41' E 135°13'0 0.0
2016-Jul-17 15:30N 34°41' E 135°13'0 0.0
2016-Jul-17 14:30N 34°41' E 135°13'0 0.0
2016-Jul-17 13:30N 34°41' E 135°13'0 0.0
2016-Jul-17 12:30N 34°41' E 135°13'  

Dump ship's entire track history